Pagina principale
METAR-TAF:

METAR-TAF

Aeroporti :

Newquay Cornwall, Inghilterra

latitudine: 50-26N, longitudine: 005-00W, altezza: 119 m

Osservazione

Il bollettino è stato emesso 19 minuti fa, alle 16:20 UTC
Vento 15 kt da est/sud-est
Temperature 24°C
Umidità 31%
Pressione 1019 hPa
Visibilità 10 km o più

METAR: EGHQ 311620Z AUTO 11015KT 9999 NCD 24/06 Q1019

Ora: 17:39 (16:39 UTC)

Previsione

Il bollettino è stato emesso 2 ore e 46 minuti fa, alle 13:53 UTC
Previsione valida dal 31 alle 15 UTC al 31 alle 24 UTC
Vento 12 kt da est
Visibilità 10 km o più
nessuna nube inferiore a 1500 m e nessun cumulonembo
Temporaneamente
dal 31 alle 15 UTC al 31 alle 24 UTC
Vento 15 kt da est/sud-est con raffiche fino a 25 kt

TAF: EGHQ 311353Z 3115/3124 10012KT CAVOK TEMPO 3115/3124 12015G25KT

Osservazioni e previsioni meteorologiche di più di 4000 aeroporti (messaggi METAR e TAF).

Le stazioni disponibili sono rappresentate dai dischi gialli e rossi sulla carta.

Puntare il mouse per vedere il nome della stazione.

Clicca sopra per visualizzare le osservazioni e previsioni meteorologiche.

Per cambiare la mappa : fare clic sui pulsanti verdi con una croce nera per ingrandire, il pulsante verde con un trattino per diminuire, o sulla freccia verde per le mappe adiacenti.


METAR-TAF: